Time;durP1;ratioP1;P1;durP2;ratioP2;P2;SDS_P1;SDS_P2;PMS_P1;PMS_P2;Temp;Humidity;BMP_temperature;BMP_pressure;BME280_temperature;BME280_humidity;BME280_pressure;Samples;Min_cycle;Max_cycle;Signal;HPM_P1;HPM_P2
2022/06/09 00:01:05;;;;;;;0.95;0.63;;;13.80;99.90;;;;;;5079486;28;20439;-75
2022/06/09 00:03:43;;;;;;;0.93;0.60;;;13.80;99.90;;;;;;5086666;28;20434;-75
2022/06/09 00:06:10;;;;;;;1.40;0.60;;;13.90;99.90;;;;;;5073516;28;20073;-75
2022/06/09 00:08:38;;;;;;;0.50;0.50;;;13.90;99.90;;;;;;5080787;28;20036;-75
2022/06/09 00:11:06;;;;;;;1.08;0.75;;;13.90;99.90;;;;;;5085858;28;20028;-76
2022/06/09 00:13:34;;;;;;;0.63;0.50;;;14.00;99.90;;;;;;5087159;28;20039;-76
2022/06/09 00:16:00;;;;;;;0.63;0.47;;;14.00;99.90;;;;;;5084973;28;20108;-76
2022/06/09 00:18:26;;;;;;;0.65;0.57;;;14.10;99.90;;;;;;5080640;28;20082;-76
2022/06/09 00:20:52;;;;;;;0.75;0.45;;;14.10;99.90;;;;;;5088880;28;20035;-76
2022/06/09 00:23:18;;;;;;;1.08;0.47;;;14.10;99.90;;;;;;5083906;28;20021;-74
2022/06/09 00:25:45;;;;;;;1.05;0.55;;;14.20;99.90;;;;;;5082445;28;20056;-75
2022/06/09 00:28:11;;;;;;;2.08;0.60;;;14.20;99.90;;;;;;5084193;28;20028;-73
2022/06/09 00:30:36;;;;;;;1.08;0.75;;;14.30;99.90;;;;;;5064443;28;20020;-73
2022/06/09 00:33:02;;;;;;;2.85;0.60;;;14.30;99.90;;;;;;5070048;28;20020;-74
2022/06/09 00:35:28;;;;;;;0.90;0.30;;;14.40;99.90;;;;;;5066888;28;20024;-73
2022/06/09 00:37:53;;;;;;;0.88;0.50;;;14.40;99.90;;;;;;5066986;28;20032;-74
2022/06/09 00:40:19;;;;;;;0.35;0.35;;;14.40;99.90;;;;;;5064191;28;20033;-74
2022/06/09 00:42:45;;;;;;;0.40;0.35;;;14.40;99.90;;;;;;5072787;28;20024;-76
2022/06/09 00:46:01;;;;;;;0.68;0.40;;;14.50;99.90;;;;;;5065196;28;20050;-76
2022/06/09 00:48:40;;;;;;;3.08;0.80;;;14.50;99.90;;;;;;5061265;28;20044;-74
2022/06/09 00:51:14;;;;;;;0.35;0.35;;;14.50;99.90;;;;;;5060879;28;20485;-75
2022/06/09 00:53:41;;;;;;;1.58;0.60;;;14.60;99.90;;;;;;5068523;28;20033;-75
2022/06/09 00:56:10;;;;;;;0.75;0.47;;;14.70;99.90;;;;;;5068479;28;20031;-74
2022/06/09 00:58:40;;;;;;;3.83;0.90;;;14.60;99.90;;;;;;5070896;28;20051;-75
2022/06/09 01:01:10;;;;;;;0.50;0.47;;;14.70;99.90;;;;;;5068853;28;20384;-75
2022/06/09 01:03:45;;;;;;;0.63;0.40;;;14.70;99.90;;;;;;5073431;28;20056;-75
2022/06/09 01:06:16;;;;;;;0.43;0.40;;;14.60;99.90;;;;;;5065073;28;20024;-75
2022/06/09 01:09:04;;;;;;;0.43;0.40;;;14.60;99.90;;;;;;5062368;28;20108;-75
2022/06/09 01:11:30;;;;;;;1.05;0.50;;;14.60;99.90;;;;;;5069494;28;20482;-75
2022/06/09 01:13:58;;;;;;;1.83;0.57;;;14.50;99.90;;;;;;5072910;28;20035;-75
2022/06/09 01:16:30;;;;;;;2.47;0.50;;;14.50;99.90;;;;;;5067781;28;20041;-74
2022/06/09 01:18:59;;;;;;;1.48;0.30;;;14.30;99.90;;;;;;5064450;28;20047;-75
2022/06/09 01:21:42;;;;;;;5.68;0.35;;;14.20;99.90;;;;;;5072835;28;20028;-75
2022/06/09 01:24:50;;;;;;;1.40;0.30;;;14.00;99.90;;;;;;5067851;28;20121;-75
2022/06/09 01:27:47;;;;;;;1.65;0.30;;;13.80;99.90;;;;;;5059629;28;20032;-76
2022/06/09 01:30:15;;;;;;;0.50;0.40;;;13.60;99.90;;;;;;5060935;28;20513;-75
2022/06/09 01:33:12;;;;;;;1.35;0.70;;;13.50;99.90;;;;;;5059517;28;20548;-75
2022/06/09 01:36:07;;;;;;;1.50;0.35;;;13.30;99.90;;;;;;5055115;28;20031;-74
2022/06/09 01:38:44;;;;;;;0.90;0.40;;;;;;;;;;5055795;28;20052;-74
2022/06/09 01:41:10;;;;;;;0.55;0.30;;;;;;;;;;5065151;28;20029;-74
2022/06/09 01:43:36;;;;;;;0.77;0.30;;;;;;;;;;5063029;28;20031;-74
2022/06/09 01:46:10;;;;;;;3.60;0.50;;;;;;;;;;5061452;28;20102;-74
2022/06/09 01:48:37;;;;;;;1.98;0.40;;;;;;;;;;5067294;28;20032;-73
2022/06/09 01:51:07;;;;;;;0.50;0.32;;;;;;;;;;5060982;28;20029;-73
2022/06/09 01:53:33;;;;;;;1.75;0.40;;;;;;;;;;5061355;28;20174;-74
2022/06/09 01:56:06;;;;;;;1.85;0.55;;;13.10;99.90;;;;;;5069685;28;20461;-74
2022/06/09 01:58:40;;;;;;;1.30;0.60;;;13.10;99.90;;;;;;5063287;28;20056;-74
2022/06/09 02:01:08;;;;;;;3.22;0.73;;;13.00;99.90;;;;;;5069307;28;20433;-73
2022/06/09 02:03:39;;;;;;;1.73;0.52;;;13.00;99.90;;;;;;5062114;28;20102;-74
2022/06/09 02:06:08;;;;;;;3.83;0.88;;;12.90;99.90;;;;;;5076528;28;20051;-73
2022/06/09 02:08:35;;;;;;;2.90;0.80;;;12.90;99.90;;;;;;5087490;28;20096;-73
2022/06/09 02:11:07;;;;;;;2.17;0.80;;;12.80;99.90;;;;;;5077257;28;20024;-74
2022/06/09 02:13:42;;;;;;;1.48;0.80;;;12.80;99.90;;;;;;5078135;28;20044;-73
2022/06/09 02:16:11;;;;;;;2.47;1.08;;;12.70;99.90;;;;;;5080151;28;20054;-73
2022/06/09 02:18:45;;;;;;;2.53;0.93;;;12.70;99.90;;;;;;5094324;28;20044;-73
2022/06/09 02:21:16;;;;;;;2.45;0.90;;;12.70;99.90;;;;;;5084481;28;20050;-74
2022/06/09 02:23:43;;;;;;;2.28;0.90;;;12.70;99.90;;;;;;5100147;28;20052;-74
2022/06/09 02:26:09;;;;;;;3.22;0.90;;;12.70;99.90;;;;;;5059275;28;20458;-73
2022/06/09 02:28:35;;;;;;;1.92;1.00;;;12.70;99.90;;;;;;5028239;28;1099240;-73
2022/06/09 02:31:01;;;;;;;2.10;0.93;;;12.70;99.90;;;;;;5061157;28;20307;-73
2022/06/09 02:33:26;;;;;;;7.15;1.27;;;12.70;99.90;;;;;;5074463;28;20476;-74
2022/06/09 02:35:52;;;;;;;1.95;1.00;;;12.60;99.90;;;;;;5062111;28;20059;-73
2022/06/09 02:38:19;;;;;;;3.33;0.98;;;12.70;99.90;;;;;;5055844;28;20036;-73
2022/06/09 02:40:45;;;;;;;2.95;1.20;;;12.70;99.90;;;;;;5052810;28;20079;-73
2022/06/09 02:43:13;;;;;;;1.10;0.90;;;12.60;99.90;;;;;;5064788;28;20473;-74
2022/06/09 02:45:39;;;;;;;4.60;1.42;;;12.60;99.90;;;;;;5058979;28;20029;-73
2022/06/09 02:48:05;;;;;;;2.25;1.17;;;12.70;99.90;;;;;;5059823;28;20977;-73
2022/06/09 02:50:33;;;;;;;2.63;1.00;;;12.70;99.90;;;;;;5061160;28;20037;-73
2022/06/09 02:52:59;;;;;;;3.17;1.13;;;12.70;99.90;;;;;;5066937;28;20378;-73
2022/06/09 02:55:25;;;;;;;1.80;0.95;;;12.70;99.90;;;;;;5065989;28;20029;-74
2022/06/09 02:57:51;;;;;;;2.72;1.08;;;12.70;99.90;;;;;;5055048;28;20040;-73
2022/06/09 03:00:17;;;;;;;2.60;1.13;;;12.60;99.90;;;;;;5058777;28;20397;-73
2022/06/09 03:02:49;;;;;;;4.38;1.27;;;12.70;99.90;;;;;;5054955;28;20032;-74
2022/06/09 03:05:16;;;;;;;2.15;1.00;;;12.70;99.90;;;;;;5054223;28;20502;-76
2022/06/09 03:07:41;;;;;;;1.20;1.10;;;12.70;99.90;;;;;;5056419;28;20040;-75
2022/06/09 03:10:07;;;;;;;8.43;2.25;;;12.70;99.90;;;;;;5060103;28;20036;-74
2022/06/09 03:12:33;;;;;;;2.47;1.00;;;12.70;99.90;;;;;;5059990;28;20074;-74
2022/06/09 03:14:58;;;;;;;2.30;1.23;;;12.70;99.90;;;;;;5051937;28;20029;-74
2022/06/09 03:17:25;;;;;;;2.70;1.02;;;12.70;99.90;;;;;;5060853;28;20033;-76
2022/06/09 03:19:51;;;;;;;3.72;1.27;;;12.70;99.90;;;;;;5060214;28;20035;-75
2022/06/09 03:22:17;;;;;;;2.00;1.20;;;12.70;99.90;;;;;;5053368;28;20036;-75
2022/06/09 03:24:43;;;;;;;2.42;1.35;;;12.70;99.90;;;;;;5050549;28;20079;-76
2022/06/09 03:27:09;;;;;;;2.95;1.35;;;12.70;99.90;;;;;;5060340;28;20029;-75
2022/06/09 03:29:35;;;;;;;2.63;1.30;;;12.70;99.90;;;;;;5060504;28;20060;-74
2022/06/09 03:32:01;;;;;;;4.03;1.73;;;12.70;99.90;;;;;;5070393;28;20020;-75
2022/06/09 03:34:27;;;;;;;4.38;1.60;;;12.70;99.90;;;;;;5061895;28;20500;-75
2022/06/09 03:36:52;;;;;;;5.15;1.48;;;12.80;99.90;;;;;;5062291;28;20104;-75
2022/06/09 03:39:18;;;;;;;1.90;1.25;;;12.80;99.90;;;;;;5071593;28;20040;-75
2022/06/09 03:41:43;;;;;;;1.88;1.40;;;12.80;99.90;;;;;;5064612;28;20032;-75
2022/06/09 03:44:09;;;;;;;5.10;1.80;;;12.80;99.90;;;;;;5059115;28;20040;-75
2022/06/09 03:46:35;;;;;;;4.35;1.30;;;12.80;99.90;;;;;;5063548;28;20528;-74
2022/06/09 03:49:02;;;;;;;2.72;1.17;;;12.90;99.90;;;;;;5068421;28;20032;-75
2022/06/09 03:51:28;;;;;;;2.80;1.60;;;12.90;99.90;;;;;;5062479;28;20496;-75
2022/06/09 03:53:53;;;;;;;6.20;1.30;;;12.90;99.90;;;;;;5067945;28;20020;-75
2022/06/09 03:56:21;;;;;;;3.58;1.20;;;12.90;99.90;;;;;;5065171;28;20047;-75
2022/06/09 03:58:47;;;;;;;3.03;1.23;;;12.90;99.90;;;;;;5061324;28;20036;-74
2022/06/09 04:01:17;;;;;;;4.25;1.60;;;12.90;99.90;;;;;;5056319;28;20049;-75
2022/06/09 04:03:45;;;;;;;2.45;1.17;;;13.00;99.90;;;;;;5065175;28;20060;-74
2022/06/09 04:06:17;;;;;;;6.68;1.67;;;13.00;99.90;;;;;;5056595;28;20052;-75
2022/06/09 04:08:43;;;;;;;6.07;1.58;;;13.00;99.90;;;;;;5062184;28;20040;-76
2022/06/09 04:11:09;;;;;;;5.00;1.70;;;13.00;99.90;;;;;;5061126;28;20028;-75
2022/06/09 04:13:37;;;;;;;5.15;1.67;;;13.10;99.90;;;;;;5074677;28;20025;-76
2022/06/09 04:16:06;;;;;;;4.05;1.80;;;13.10;99.90;;;;;;5070561;28;20484;-74
2022/06/09 04:18:32;;;;;;;2.63;1.17;;;13.10;99.90;;;;;;5064231;28;20044;-75
2022/06/09 04:20:57;;;;;;;4.00;1.23;;;13.20;99.90;;;;;;5057435;28;20024;-75
2022/06/09 04:23:25;;;;;;;3.10;0.95;;;13.20;99.90;;;;;;5062309;28;20102;-74
2022/06/09 04:25:51;;;;;;;3.28;1.42;;;13.20;99.90;;;;;;5072304;28;20024;-75
2022/06/09 04:28:18;;;;;;;2.80;1.50;;;13.20;99.90;;;;;;5066606;28;20090;-76
2022/06/09 04:30:44;;;;;;;4.47;1.40;;;13.20;99.90;;;;;;5063910;28;20032;-75
2022/06/09 04:33:10;;;;;;;5.97;1.33;;;13.30;99.90;;;;;;5072079;28;20025;-74
2022/06/09 04:35:35;;;;;;;1.92;1.30;;;13.30;99.90;;;;;;5067912;28;20086;-74
2022/06/09 04:38:01;;;;;;;3.22;1.45;;;13.30;99.90;;;;;;5042022;28;20056;-74
2022/06/09 04:40:29;;;;;;;4.03;1.33;;;13.30;99.90;;;;;;5066948;28;20540;-74
2022/06/09 04:42:55;;;;;;;4.65;1.35;;;13.20;99.90;;;;;;5077348;28;20472;-74
2022/06/09 04:45:21;;;;;;;3.75;1.35;;;13.20;99.90;;;;;;5064630;28;20040;-74
2022/06/09 04:47:47;;;;;;;3.42;1.33;;;13.20;99.90;;;;;;5070061;28;20047;-74
2022/06/09 04:50:13;;;;;;;11.07;1.83;;;13.20;99.90;;;;;;5062733;28;20427;-73
2022/06/09 04:52:39;;;;;;;4.55;1.48;;;13.30;99.90;;;;;;5068333;28;20032;-75
2022/06/09 04:55:06;;;;;;;2.85;1.17;;;13.30;99.90;;;;;;5061815;28;20028;-75
2022/06/09 04:57:32;;;;;;;4.05;1.45;;;13.30;99.90;;;;;;5063295;28;20054;-74
2022/06/09 04:59:57;;;;;;;6.00;1.55;;;13.30;99.90;;;;;;5065620;28;20037;-75
2022/06/09 05:02:23;;;;;;;4.13;1.38;;;13.30;99.90;;;;;;5064333;28;20466;-75
2022/06/09 05:04:49;;;;;;;5.75;1.70;;;13.40;99.90;;;;;;5066138;28;20099;-75
2022/06/09 05:07:15;;;;;;;2.58;1.00;;;13.40;99.90;;;;;;5070896;28;20060;-75
2022/06/09 05:09:41;;;;;;;6.95;1.33;;;13.50;99.90;;;;;;5068027;28;20432;-75
2022/06/09 05:12:07;;;;;;;2.60;1.30;;;13.50;99.90;;;;;;5059965;28;20030;-75
2022/06/09 05:14:32;;;;;;;2.60;1.30;;;13.50;99.90;;;;;;5071373;28;20130;-75
2022/06/09 05:16:58;;;;;;;4.20;1.50;;;13.50;99.90;;;;;;5075878;28;20458;-75
2022/06/09 05:19:23;;;;;;;5.43;1.33;;;13.50;99.90;;;;;;5064676;28;20453;-74
2022/06/09 05:21:49;;;;;;;3.67;1.30;;;13.60;99.90;;;;;;5070236;28;20386;-75
2022/06/09 05:24:15;;;;;;;3.03;1.30;;;13.60;99.90;;;;;;5067622;28;20029;-75
2022/06/09 05:26:41;;;;;;;3.17;1.20;;;13.60;99.90;;;;;;5063125;28;20488;-76
2022/06/09 05:29:07;;;;;;;4.28;1.63;;;13.60;99.90;;;;;;5069608;28;20072;-76
2022/06/09 05:31:33;;;;;;;6.10;1.95;;;13.60;99.90;;;;;;5057468;28;20036;-74
2022/06/09 05:33:58;;;;;;;6.75;1.52;;;13.50;99.90;;;;;;5063164;28;20025;-75
2022/06/09 05:36:24;;;;;;;6.60;1.45;;;13.50;99.90;;;;;;5076457;28;20445;-76
2022/06/09 05:47:02;;;;;;;3.75;1.30;;;13.90;99.90;;;;;;5061866;28;20055;-83
2022/06/09 05:49:30;;;;;;;8.48;1.52;;;14.00;99.90;;;;;;5070417;28;20020;-78
2022/06/09 05:51:56;;;;;;;4.70;1.20;;;14.10;99.90;;;;;;5072058;28;20533;-80
2022/06/09 05:54:22;;;;;;;9.73;1.40;;;14.20;99.90;;;;;;5060836;28;20151;-80
2022/06/09 05:56:47;;;;;;;4.68;1.42;;;14.40;99.90;;;;;;5068635;28;20444;-78
2022/06/09 05:59:13;;;;;;;4.72;1.75;;;14.50;99.90;;;;;;5055687;28;20404;-83
2022/06/09 06:01:39;;;;;;;6.85;1.95;;;14.70;99.90;;;;;;5073488;28;20145;-80
2022/06/09 06:04:07;;;;;;;6.55;1.40;;;14.90;99.90;;;;;;5068349;28;20075;-81
2022/06/09 06:06:35;;;;;;;8.43;1.23;;;15.10;99.90;;;;;;5059606;28;20043;-77
2022/06/09 06:09:11;;;;;;;2.35;0.95;;;15.20;99.90;;;;;;5073038;28;20079;-78
2022/06/09 06:11:38;;;;;;;4.85;1.30;;;15.30;99.90;;;;;;5070933;28;20496;-77
2022/06/09 06:14:04;;;;;;;5.03;1.52;;;15.50;99.90;;;;;;5071125;28;20051;-77
2022/06/09 06:16:30;;;;;;;4.47;1.40;;;15.60;99.90;;;;;;5068626;28;20077;-79
2022/06/09 06:18:57;;;;;;;5.13;1.10;;;15.70;99.90;;;;;;5067049;28;20035;-78
2022/06/09 06:21:23;;;;;;;4.22;1.00;;;15.80;99.90;;;;;;5067493;28;20477;-83
2022/06/09 06:23:55;;;;;;;5.90;1.50;;;15.90;99.90;;;;;;5080611;28;20028;-82
2022/06/09 06:26:20;;;;;;;4.95;1.20;;;16.00;99.90;;;;;;5069893;28;20465;-83
2022/06/09 06:28:46;;;;;;;4.43;1.10;;;16.00;99.90;;;;;;5069370;28;20060;-76
2022/06/09 06:31:12;;;;;;;3.78;1.40;;;16.10;99.90;;;;;;5066660;28;20032;-78
2022/06/09 06:33:38;;;;;;;3.78;0.80;;;16.30;99.90;;;;;;5064805;28;20024;-75
2022/06/09 06:36:04;;;;;;;4.53;1.10;;;16.40;99.90;;;;;;5077393;28;20158;-79
2022/06/09 06:38:30;;;;;;;3.92;1.00;;;16.40;99.90;;;;;;5079392;28;20058;-69
2022/06/09 06:40:56;;;;;;;3.03;1.10;;;16.50;99.90;;;;;;5070212;28;20126;-69
2022/06/09 06:43:22;;;;;;;4.60;1.20;;;16.70;99.90;;;;;;5070378;28;20462;-69
2022/06/09 06:45:48;;;;;;;6.20;1.45;;;16.70;99.90;;;;;;5074989;28;20098;-70
2022/06/09 06:48:14;;;;;;;5.30;1.20;;;16.90;99.90;;;;;;5072147;28;20171;-69
2022/06/09 06:50:40;;;;;;;4.68;1.70;;;16.90;99.90;;;;;;5071705;28;20028;-73
2022/06/09 06:53:06;;;;;;;7.32;1.20;;;16.90;99.90;;;;;;5080303;28;20028;-73
2022/06/09 06:55:32;;;;;;;4.88;1.00;;;16.90;99.90;;;;;;5074330;28;20029;-73
2022/06/09 06:57:58;;;;;;;4.68;1.38;;;17.00;99.90;;;;;;5079338;28;20044;-72
2022/06/09 07:00:24;;;;;;;7.55;1.55;;;17.00;99.90;;;;;;5073842;28;20090;-72
2022/06/09 07:02:51;;;;;;;5.93;1.25;;;17.00;99.90;;;;;;5075279;28;20123;-70
2022/06/09 07:05:21;;;;;;;4.75;1.00;;;17.00;99.90;;;;;;5071940;28;20036;-70
2022/06/09 07:07:47;;;;;;;6.70;1.67;;;16.90;99.90;;;;;;5066463;28;20103;-71
2022/06/09 07:10:13;;;;;;;5.78;1.33;;;16.80;99.90;;;;;;5081850;28;20050;-72
2022/06/09 07:12:42;;;;;;;7.65;1.25;;;16.70;99.90;;;;;;5073628;28;20056;-75
2022/06/09 07:15:10;;;;;;;4.63;1.25;;;16.70;99.90;;;;;;5096759;28;20012;-73
2022/06/09 07:17:36;;;;;;;4.90;1.10;;;16.80;99.90;;;;;;5097703;28;20036;-73
2022/06/09 07:20:02;;;;;;;5.60;1.33;;;16.90;99.90;;;;;;5094231;28;20031;-73
2022/06/09 07:22:28;;;;;;;7.63;1.48;;;16.90;99.90;;;;;;5084538;28;20032;-73
2022/06/09 07:24:55;;;;;;;8.15;1.23;;;16.80;99.90;;;;;;5071039;28;20025;-73
2022/06/09 07:27:22;;;;;;;4.90;1.20;;;16.80;99.90;;;;;;5067933;28;20028;-73
2022/06/09 07:29:48;;;;;;;6.53;1.10;;;16.80;99.90;;;;;;5080436;28;20056;-73
2022/06/09 07:32:14;;;;;;;7.90;1.48;;;16.90;99.90;;;;;;5074978;28;20104;-73
2022/06/09 07:34:39;;;;;;;5.30;1.00;;;17.00;99.90;;;;;;5067913;28;20032;-75
2022/06/09 07:37:06;;;;;;;7.93;1.75;;;17.10;99.90;;;;;;5074749;28;20063;-75
2022/06/09 07:39:31;;;;;;;11.00;1.55;;;17.30;99.90;;;;;;5074909;28;20041;-74
2022/06/09 07:41:57;;;;;;;8.73;1.48;;;17.30;99.90;;;;;;5074717;28;20031;-74
2022/06/09 07:44:23;;;;;;;4.95;1.20;;;17.20;99.90;;;;;;5082354;28;20133;-73
2022/06/09 07:46:49;;;;;;;10.88;1.20;;;17.20;99.90;;;;;;5074552;28;20454;-73
2022/06/09 07:49:14;;;;;;;5.18;1.23;;;17.30;99.90;;;;;;5071865;28;20035;-74
2022/06/09 07:51:40;;;;;;;7.57;1.38;;;17.40;99.90;;;;;;5070400;28;20036;-74
2022/06/09 07:54:06;;;;;;;8.38;1.40;;;17.40;99.90;;;;;;5072958;28;20030;-74
2022/06/09 07:56:33;;;;;;;5.63;1.45;;;17.40;99.90;;;;;;5070197;28;20481;-73
2022/06/09 07:59:06;;;;;;;6.00;1.52;;;17.50;99.90;;;;;;5060733;28;20044;-73
2022/06/09 08:01:32;;;;;;;4.32;1.10;;;17.50;99.90;;;;;;5077134;28;20075;-73
2022/06/09 08:03:58;;;;;;;10.40;1.30;;;17.60;99.90;;;;;;5079470;28;20016;-74
2022/06/09 08:06:23;;;;;;;10.75;2.00;;;17.60;99.90;;;;;;5068751;28;20430;-73
2022/06/09 08:08:50;;;;;;;6.47;1.40;;;17.60;99.90;;;;;;5066706;28;20036;-74
2022/06/09 08:11:16;;;;;;;4.93;1.00;;;17.60;99.90;;;;;;5069836;28;20634;-73
2022/06/09 08:13:43;;;;;;;7.93;1.60;;;17.70;99.90;;;;;;5053404;28;20035;-73
2022/06/09 08:16:08;;;;;;;7.72;1.83;;;17.80;99.90;;;;;;5070421;28;20059;-72
2022/06/09 08:18:34;;;;;;;8.70;1.77;;;17.80;99.90;;;;;;5069670;28;20453;-72
2022/06/09 08:21:00;;;;;;;6.53;1.23;;;17.70;99.90;;;;;;5076653;28;20081;-73
2022/06/09 08:23:29;;;;;;;5.50;1.42;;;17.70;99.90;;;;;;5079030;28;20462;-73
2022/06/09 08:25:58;;;;;;;6.22;1.15;;;17.70;99.90;;;;;;5068698;28;20492;-73
2022/06/09 08:28:25;;;;;;;6.68;1.00;;;17.90;99.90;;;;;;5076177;28;20044;-75
2022/06/09 08:30:55;;;;;;;4.63;0.90;;;17.90;99.90;;;;;;5063022;28;20033;-75
2022/06/09 08:33:22;;;;;;;4.10;0.98;;;17.80;99.90;;;;;;5077005;28;20056;-75
2022/06/09 08:35:48;;;;;;;3.17;0.90;;;17.80;99.90;;;;;;5065964;28;20131;-75
2022/06/09 08:38:15;;;;;;;3.08;1.10;;;18.00;99.90;;;;;;5073535;28;20043;-75
2022/06/09 08:41:08;;;;;;;6.75;1.60;;;18.30;99.90;;;;;;5060921;28;20037;-75
2022/06/09 08:43:34;;;;;;;5.97;1.17;;;18.60;99.90;;;;;;5067598;28;20060;-74
2022/06/09 08:46:15;;;;;;;4.70;1.15;;;18.80;99.90;;;;;;5069172;28;20028;-74
2022/06/09 08:48:45;;;;;;;8.90;1.65;;;18.90;99.90;;;;;;5059409;28;20035;-74
2022/06/09 08:51:21;;;;;;;6.88;1.90;;;18.90;99.90;;;;;;5072466;28;20050;-75
2022/06/09 08:53:56;;;;;;;6.13;1.17;;;19.00;99.90;;;;;;5056833;28;20316;-75
2022/06/09 08:56:30;;;;;;;4.30;1.20;;;19.20;99.90;;;;;;5071078;28;20115;-74
2022/06/09 08:59:04;;;;;;;5.63;1.15;;;19.30;99.60;;;;;;5071266;28;20052;-73
2022/06/09 09:01:36;;;;;;;4.32;0.82;;;19.30;99.70;;;;;;5066059;28;20035;-73
2022/06/09 09:04:02;;;;;;;4.00;0.68;;;19.40;98.40;;;;;;5067567;28;20166;-74
2022/06/09 09:06:45;;;;;;;6.82;1.27;;;19.40;98.50;;;;;;5076147;28;20509;-74
2022/06/09 09:09:18;;;;;;;4.63;0.70;;;19.60;98.20;;;;;;5077859;28;20442;-75
2022/06/09 09:11:52;;;;;;;5.07;1.00;;;19.70;97.80;;;;;;5071974;28;20074;-73
2022/06/09 09:14:28;;;;;;;4.72;1.02;;;19.90;97.10;;;;;;5084974;28;20024;-74
2022/06/09 09:17:12;;;;;;;4.32;0.82;;;19.70;96.20;;;;;;5072726;28;20103;-74
2022/06/09 09:20:11;;;;;;;8.40;1.42;;;19.50;96.60;;;;;;5070078;28;20064;-74
2022/06/09 09:22:46;;;;;;;4.65;1.13;;;19.60;96.90;;;;;;5078277;28;20113;-73
2022/06/09 09:25:13;;;;;;;5.57;0.90;;;19.70;96.90;;;;;;5074227;28;20497;-74
2022/06/09 09:27:59;;;;;;;3.55;1.20;;;19.70;96.50;;;;;;5067046;28;20142;-73
2022/06/09 09:30:34;;;;;;;7.10;1.45;;;19.80;96.80;;;;;;5068794;28;20041;-74
2022/06/09 09:33:01;;;;;;;5.88;1.35;;;19.90;96.20;;;;;;5072485;28;20051;-73
2022/06/09 09:35:40;;;;;;;5.05;1.15;;;19.90;96.40;;;;;;5067286;28;20029;-74
2022/06/09 09:38:08;;;;;;;2.88;1.23;;;20.10;95.80;;;;;;5067230;28;20075;-73
2022/06/09 09:40:46;;;;;;;6.55;1.17;;;20.30;95.30;;;;;;5075099;28;20089;-75
2022/06/09 09:43:25;;;;;;;5.20;1.42;;;20.50;94.60;;;;;;5073655;28;20389;-75
2022/06/09 09:45:56;;;;;;;4.72;1.25;;;20.60;95.20;;;;;;5067760;28;20115;-75
2022/06/09 09:48:21;;;;;;;5.25;1.20;;;20.80;94.90;;;;;;5073577;28;20029;-74
2022/06/09 09:51:01;;;;;;;5.88;0.95;;;20.70;94.80;;;;;;5074396;28;20113;-74
2022/06/09 09:53:47;;;;;;;13.35;0.80;;;20.40;95.00;;;;;;5072190;28;20039;-73
2022/06/09 09:56:15;;;;;;;5.05;1.08;;;20.20;95.50;;;;;;5075532;28;20493;-73
2022/06/09 09:58:47;;;;;;;6.55;0.90;;;20.30;95.00;;;;;;5064025;28;20079;-73
2022/06/09 10:01:22;;;;;;;3.25;0.93;;;20.40;94.30;;;;;;5079346;28;20024;-72
2022/06/09 10:09:41;;;;;;;4.47;1.00;;;21.10;97.50;;;;;;5070521;28;20381;-72
2022/06/09 10:12:27;;;;;;;4.13;1.23;;;21.10;95.00;;;;;;5080749;28;20036;-73
2022/06/09 10:14:57;;;;;;;6.72;1.45;;;21.00;96.30;;;;;;5072120;28;20056;-72
2022/06/09 10:17:35;;;;;;;5.05;1.13;;;21.00;94.10;;;;;;5065912;28;20024;-72
2022/06/09 10:20:04;;;;;;;4.65;0.90;;;20.60;92.70;;;;;;5059927;28;20119;-72
2022/06/09 10:22:33;;;;;;;4.30;0.95;;;20.30;94.40;;;;;;5068566;28;20045;-73
2022/06/09 10:25:13;;;;;;;6.50;1.25;;;20.30;96.20;;;;;;5072717;28;20124;-72
2022/06/09 10:28:05;;;;;;;3.45;1.17;;;20.60;96.50;;;;;;5071394;28;20032;-73
2022/06/09 10:30:41;;;;;;;5.85;1.45;;;20.40;96.70;;;;;;5067364;28;20424;-73
2022/06/09 10:33:31;;;;;;;3.40;0.82;;;20.20;95.30;;;;;;5064383;28;20063;-73
2022/06/09 10:36:10;;;;;;;4.38;0.88;;;19.90;94.90;;;;;;5064567;28;20102;-73
2022/06/09 10:38:50;;;;;;;3.67;1.10;;;19.70;96.10;;;;;;5059811;28;20478;-72
2022/06/09 10:41:47;;;;;;;3.65;0.90;;;19.80;96.30;;;;;;5065512;28;20452;-72
2022/06/09 10:44:30;;;;;;;4.75;0.73;;;20.30;96.10;;;;;;5052880;28;20500;-73
2022/06/09 10:56:02;;;;;;;5.53;0.95;;;21.10;93.80;;;;;;5072213;28;20082;-73
2022/06/09 10:58:49;;;;;;;3.33;0.93;;;21.30;93.70;;;;;;5081780;28;20039;-72
2022/06/09 11:01:36;;;;;;;5.50;1.08;;;21.40;88.00;;;;;;5073776;28;20029;-73
2022/06/09 11:04:10;;;;;;;8.15;1.83;;;21.50;87.70;;;;;;5065943;28;20033;-72
2022/06/09 11:07:11;;;;;;;4.00;1.15;;;21.80;86.70;;;;;;5068731;28;20035;-73
2022/06/09 11:10:17;;;;;;;4.00;0.90;;;21.80;89.00;;;;;;5070565;28;20036;-71
2022/06/09 11:12:59;;;;;;;4.95;1.30;;;21.70;90.10;;;;;;5046013;28;20040;-71
2022/06/09 11:15:34;;;;;;;4.97;1.10;;;21.60;90.00;;;;;;5070513;28;20527;-73
2022/06/09 11:18:18;;;;;;;3.58;1.17;;;21.20;85.90;;;;;;5065752;28;20037;-72
2022/06/09 11:20:55;;;;;;;4.93;0.55;;;20.70;84.40;;;;;;5066354;28;20044;-72
2022/06/09 11:23:26;;;;;;;8.95;1.55;;;20.30;87.30;;;;;;5078043;28;20020;-71
2022/06/09 11:25:55;;;;;;;5.32;1.10;;;20.50;88.70;;;;;;5064230;28;20133;-72
2022/06/09 11:28:27;;;;;;;7.85;1.02;;;20.80;90.00;;;;;;5065880;28;20055;-72
2022/06/09 11:31:04;;;;;;;3.50;1.02;;;21.10;90.10;;;;;;5061144;28;20040;-72
2022/06/09 11:33:36;;;;;;;3.40;1.08;;;21.30;90.00;;;;;;5060331;28;20098;-71
2022/06/09 11:36:23;;;;;;;4.50;1.00;;;21.10;90.10;;;;;;5075619;28;20400;-73
2022/06/09 11:39:27;;;;;;;6.22;1.50;;;21.20;90.20;;;;;;5073090;28;20387;-72
2022/06/09 11:42:08;;;;;;;4.25;1.33;;;21.40;88.60;;;;;;5071208;28;20043;-72
2022/06/09 11:44:37;;;;;;;;;;;21.80;88.40;;;;;;5066120;28;20478;-72
2022/06/09 11:47:10;;;;;;;6.13;1.55;;;22.10;87.20;;;;;;5069821;28;20046;-72
2022/06/09 11:49:41;;;;;;;3.60;1.00;;;22.30;85.60;;;;;;5080288;28;20460;-72
2022/06/09 11:52:10;;;;;;;4.22;1.42;;;22.00;86.00;;;;;;5071592;28;20107;-72
2022/06/09 11:54:57;;;;;;;2.63;1.17;;;21.70;86.40;;;;;;5067016;28;20082;-72
2022/06/09 11:57:31;;;;;;;5.03;1.17;;;21.50;88.10;;;;;;5074209;28;20782;-72
2022/06/09 12:00:20;;;;;;;4.80;1.08;;;21.50;88.60;;;;;;5068664;28;20036;-72
2022/06/09 12:02:57;;;;;;;5.30;1.63;;;21.80;87.20;;;;;;5072668;28;20032;-72
2022/06/09 12:05:37;;;;;;;3.95;1.15;;;22.20;86.10;;;;;;5061777;28;20036;-72
2022/06/09 12:08:39;;;;;;;4.43;1.30;;;22.40;86.10;;;;;;5078508;28;20035;-72
2022/06/09 12:11:09;;;;;;;6.07;1.10;;;22.20;84.30;;;;;;5027660;28;20024;-72
2022/06/09 12:13:44;;;;;;;5.00;1.35;;;22.20;83.90;;;;;;5060953;28;20033;-71
2022/06/09 12:16:22;;;;;;;5.35;1.10;;;22.40;83.80;;;;;;5077043;28;20036;-73
2022/06/09 12:19:13;;;;;;;3.90;1.08;;;22.70;81.70;;;;;;5074990;28;20078;-72
2022/06/09 12:21:42;;;;;;;4.40;1.23;;;23.10;80.70;;;;;;5054203;28;20550;-71
2022/06/09 12:24:14;;;;;;;7.45;1.15;;;23.40;79.80;;;;;;5077918;28;20032;-72
2022/06/09 12:26:39;;;;;;;4.43;1.13;;;23.70;78.40;;;;;;5068226;28;20033;-73
2022/06/09 12:29:43;;;;;;;2.65;0.98;;;23.90;79.80;;;;;;5071545;28;20573;-72
2022/06/09 12:32:09;;;;;;;3.70;0.90;;;23.40;73.50;;;;;;5078898;28;20030;-72
2022/06/09 12:34:45;;;;;;;3.33;1.20;;;23.10;73.30;;;;;;5067416;28;20029;-72
2022/06/09 12:37:26;;;;;;;2.40;0.85;;;23.10;73.20;;;;;;5075296;28;20033;-71
2022/06/09 12:39:56;;;;;;;2.40;0.82;;;23.20;72.30;;;;;;5066825;28;20047;-73
2022/06/09 12:42:32;;;;;;;4.68;0.90;;;23.20;73.90;;;;;;5076265;28;20113;-73
2022/06/09 12:45:23;;;;;;;3.00;1.13;;;23.50;72.80;;;;;;5067697;28;20028;-72
2022/06/09 12:48:10;;;;;;;6.57;1.23;;;23.50;74.30;;;;;;5070178;28;20039;-73
2022/06/09 12:50:48;;;;;;;1.83;0.93;;;23.40;74.40;;;;;;5070582;28;20041;-72
2022/06/09 12:53:39;;;;;;;2.30;0.85;;;23.70;74.10;;;;;;5077714;28;20020;-71
2022/06/09 12:56:27;;;;;;;2.25;0.63;;;24.30;71.10;;;;;;5047895;28;20596;-73
2022/06/09 12:58:54;;;;;;;5.90;0.90;;;24.60;71.00;;;;;;5070491;28;20033;-72
2022/06/09 13:01:24;;;;;;;2.15;1.00;;;24.60;68.70;;;;;;5076083;28;20042;-72
2022/06/09 13:03:54;;;;;;;4.97;1.30;;;24.40;70.30;;;;;;5071164;28;20025;-72
2022/06/09 13:06:26;;;;;;;;;;;24.40;69.90;;;;;;5071673;28;20046;-73
2022/06/09 13:08:56;;;;;;;3.75;1.15;;;24.50;70.50;;;;;;5074716;28;20407;-72
2022/06/09 13:14:21;;;;;;;4.50;1.00;;;25.10;68.60;;;;;;5067963;28;20044;-72
2022/06/09 13:16:49;;;;;;;2.20;0.70;;;25.40;67.10;;;;;;5075525;28;20052;-73
2022/06/09 13:19:18;;;;;;;4.20;1.05;;;25.40;67.70;;;;;;5072935;28;20120;-72
2022/06/09 13:21:45;;;;;;;6.00;1.38;;;25.20;68.60;;;;;;5072173;28;20035;-72
2022/06/09 13:24:27;;;;;;;6.82;1.13;;;24.70;67.90;;;;;;5081067;28;20032;-72
2022/06/09 13:26:53;;;;;;;1.15;0.55;;;24.40;68.30;;;;;;5079011;28;20029;-72
2022/06/09 13:29:37;;;;;;;5.28;1.33;;;24.40;67.20;;;;;;5075131;28;20117;-71
2022/06/09 13:32:11;;;;;;;4.85;0.90;;;24.80;65.00;;;;;;5070533;28;20104;-73
2022/06/09 13:34:43;;;;;;;3.40;1.00;;;24.90;65.00;;;;;;5076645;28;20493;-73
2022/06/09 13:37:13;;;;;;;8.48;1.40;;;25.00;65.10;;;;;;5077059;28;20016;-74